sensor_id;sensor_type;location;lat;lon;timestamp;pressure;altitude;pressure_sealevel;temperature;humidity
63554;BME280;49699;48.072;7.800;2022-09-14T00:00:59;98517.72;;;20.09;82.23
63554;BME280;49699;48.072;7.800;2022-09-14T00:03:25;98512.97;;;20.05;82.73
63554;BME280;49699;48.072;7.800;2022-09-14T00:05:51;98504.22;;;19.96;83.45
63554;BME280;49699;48.072;7.800;2022-09-14T00:08:16;98512.00;;;19.90;83.81
63554;BME280;49699;48.072;7.800;2022-09-14T00:10:44;98515.34;;;19.84;84.12
63554;BME280;49699;48.072;7.800;2022-09-14T00:13:12;98515.00;;;19.79;84.38
63554;BME280;49699;48.072;7.800;2022-09-14T00:15:39;98520.63;;;19.75;84.76
63554;BME280;49699;48.072;7.800;2022-09-14T00:18:06;98528.88;;;19.72;84.99
63554;BME280;49699;48.072;7.800;2022-09-14T00:20:32;98531.66;;;19.71;85.18
63554;BME280;49699;48.072;7.800;2022-09-14T00:22:58;98545.91;;;19.70;85.20
63554;BME280;49699;48.072;7.800;2022-09-14T00:25:24;98549.53;;;19.69;85.19
63554;BME280;49699;48.072;7.800;2022-09-14T00:27:51;98560.25;;;19.67;85.45
63554;BME280;49699;48.072;7.800;2022-09-14T00:30:17;98562.56;;;19.62;85.75
63554;BME280;49699;48.072;7.800;2022-09-14T00:32:42;98558.75;;;19.57;85.93
63554;BME280;49699;48.072;7.800;2022-09-14T00:35:08;98551.34;;;19.52;86.11
63554;BME280;49699;48.072;7.800;2022-09-14T00:37:33;98551.66;;;19.49;86.33
63554;BME280;49699;48.072;7.800;2022-09-14T00:39:59;98553.78;;;19.46;86.53
63554;BME280;49699;48.072;7.800;2022-09-14T00:42:24;98550.50;;;19.43;86.71
63554;BME280;49699;48.072;7.800;2022-09-14T00:47:16;98545.38;;;19.42;86.55
63554;BME280;49699;48.072;7.800;2022-09-14T00:49:42;98558.56;;;19.42;86.99
63554;BME280;49699;48.072;7.800;2022-09-14T00:52:10;98553.47;;;19.40;86.86
63554;BME280;49699;48.072;7.800;2022-09-14T00:54:43;98558.72;;;19.40;86.89
63554;BME280;49699;48.072;7.800;2022-09-14T00:57:09;98547.34;;;19.40;87.02
63554;BME280;49699;48.072;7.800;2022-09-14T00:59:37;98542.75;;;19.42;87.11
63554;BME280;49699;48.072;7.800;2022-09-14T01:02:05;98536.31;;;19.45;87.17
63554;BME280;49699;48.072;7.800;2022-09-14T01:04:31;98533.00;;;19.42;87.31
63554;BME280;49699;48.072;7.800;2022-09-14T01:12:37;98545.72;;;19.39;87.77
63554;BME280;49699;48.072;7.800;2022-09-14T01:20:38;98529.72;;;19.40;87.97
63554;BME280;49699;48.072;7.800;2022-09-14T01:23:26;98529.38;;;19.43;87.96
63554;BME280;49699;48.072;7.800;2022-09-14T01:28:59;98534.00;;;19.41;88.06
63554;BME280;49699;48.072;7.800;2022-09-14T01:31:32;98532.50;;;19.39;88.19
63554;BME280;49699;48.072;7.800;2022-09-14T01:34:16;98533.50;;;19.38;88.29
63554;BME280;49699;48.072;7.800;2022-09-14T01:36:48;98534.50;;;19.37;88.36
63554;BME280;49699;48.072;7.800;2022-09-14T01:39:17;98526.75;;;19.35;88.29
63554;BME280;49699;48.072;7.800;2022-09-14T01:41:45;98517.38;;;19.33;88.37
63554;BME280;49699;48.072;7.800;2022-09-14T01:44:21;98506.00;;;19.32;88.42
63554;BME280;49699;48.072;7.800;2022-09-14T01:46:52;98514.72;;;19.33;88.48
63554;BME280;49699;48.072;7.800;2022-09-14T01:49:41;98515.88;;;19.30;88.38
63554;BME280;49699;48.072;7.800;2022-09-14T01:52:19;98519.19;;;19.32;88.58
63554;BME280;49699;48.072;7.800;2022-09-14T01:55:00;98508.78;;;19.31;88.58
63554;BME280;49699;48.072;7.800;2022-09-14T02:00:09;98510.44;;;19.32;88.66
63554;BME280;49699;48.072;7.800;2022-09-14T02:02:58;98499.88;;;19.32;88.64
63554;BME280;49699;48.072;7.800;2022-09-14T02:05:27;98508.78;;;19.31;88.68
63554;BME280;49699;48.072;7.800;2022-09-14T02:07:55;98502.53;;;19.32;88.66
63554;BME280;49699;48.072;7.800;2022-09-14T02:10:21;98498.91;;;19.33;88.58
63554;BME280;49699;48.072;7.800;2022-09-14T02:12:49;98496.25;;;19.33;88.60
63554;BME280;49699;48.072;7.800;2022-09-14T02:15:15;98501.38;;;19.34;88.50
63554;BME280;49699;48.072;7.800;2022-09-14T02:17:42;98507.63;;;19.33;88.69
63554;BME280;49699;48.072;7.800;2022-09-14T02:20:13;98508.47;;;19.34;88.81
63554;BME280;49699;48.072;7.800;2022-09-14T02:22:40;98507.63;;;19.33;88.97
63554;BME280;49699;48.072;7.800;2022-09-14T02:25:06;98501.38;;;19.34;88.88
63554;BME280;49699;48.072;7.800;2022-09-14T02:27:32;98511.09;;;19.34;88.92
63554;BME280;49699;48.072;7.800;2022-09-14T02:29:57;98507.63;;;19.33;88.73
63554;BME280;49699;48.072;7.800;2022-09-14T02:43:04;98492.78;;;19.32;89.22
63554;BME280;49699;48.072;7.800;2022-09-14T02:50:51;98500.53;;;19.34;89.46
63554;BME280;49699;48.072;7.800;2022-09-14T02:53:27;98497.91;;;19.34;89.39
63554;BME280;49699;48.072;7.800;2022-09-14T02:55:59;98523.09;;;19.36;89.52
63554;BME280;49699;48.072;7.800;2022-09-14T02:58:37;98517.84;;;19.36;89.40
63554;BME280;49699;48.072;7.800;2022-09-14T03:01:04;98524.75;;;19.37;89.52
63554;BME280;49699;48.072;7.800;2022-09-14T03:03:30;98511.72;;;19.36;89.56
63554;BME280;49699;48.072;7.800;2022-09-14T03:05:56;98510.91;;;19.35;89.53
63554;BME280;49699;48.072;7.800;2022-09-14T03:08:23;98505.81;;;19.34;89.66
63554;BME280;49699;48.072;7.800;2022-09-14T03:10:48;98509.28;;;19.34;89.44
63554;BME280;49699;48.072;7.800;2022-09-14T03:13:14;98501.53;;;19.33;89.96
63554;BME280;49699;48.072;7.800;2022-09-14T03:15:39;98484.88;;;19.32;89.85
63554;BME280;49699;48.072;7.800;2022-09-14T03:18:06;98481.25;;;19.33;89.76
63554;BME280;49699;48.072;7.800;2022-09-14T03:20:32;98485.53;;;19.34;89.81
63554;BME280;49699;48.072;7.800;2022-09-14T03:22:58;98496.09;;;19.34;89.80
63554;BME280;49699;48.072;7.800;2022-09-14T03:25:24;98498.38;;;19.37;89.76
63554;BME280;49699;48.072;7.800;2022-09-14T03:27:56;98492.09;;;19.38;89.70
63554;BME280;49699;48.072;7.800;2022-09-14T03:30:22;98499.69;;;19.41;89.58
63554;BME280;49699;48.072;7.800;2022-09-14T03:32:48;98499.38;;;19.45;89.42
63554;BME280;49699;48.072;7.800;2022-09-14T03:35:15;98490.31;;;19.47;89.22
63554;BME280;49699;48.072;7.800;2022-09-14T03:37:42;98490.97;;;19.49;89.26
63554;BME280;49699;48.072;7.800;2022-09-14T03:40:09;98471.53;;;19.50;89.17
63554;BME280;49699;48.072;7.800;2022-09-14T03:42:35;98475.63;;;19.53;89.07
63554;BME280;49699;48.072;7.800;2022-09-14T03:45:01;98470.19;;;19.54;89.16
63554;BME280;49699;48.072;7.800;2022-09-14T03:47:28;98479.75;;;19.55;89.10
63554;BME280;49699;48.072;7.800;2022-09-14T03:49:53;98470.84;;;19.56;89.02
63554;BME280;49699;48.072;7.800;2022-09-14T03:52:18;98456.66;;;19.57;88.99
63554;BME280;49699;48.072;7.800;2022-09-14T03:54:44;98461.94;;;19.57;89.02
63554;BME280;49699;48.072;7.800;2022-09-14T03:57:09;98469.03;;;19.57;88.95
63554;BME280;49699;48.072;7.800;2022-09-14T03:59:35;98455.81;;;19.57;88.93
63554;BME280;49699;48.072;7.800;2022-09-14T04:02:01;98447.09;;;19.56;88.94
63554;BME280;49699;48.072;7.800;2022-09-14T04:04:27;98456.00;;;19.55;88.93
63554;BME280;49699;48.072;7.800;2022-09-14T04:06:53;98442.63;;;19.57;88.97
63554;BME280;49699;48.072;7.800;2022-09-14T04:09:19;98440.16;;;19.55;88.60
63554;BME280;49699;48.072;7.800;2022-09-14T04:11:45;98432.22;;;19.55;88.79
63554;BME280;49699;48.072;7.800;2022-09-14T04:14:11;98435.88;;;19.54;88.94
63554;BME280;49699;48.072;7.800;2022-09-14T04:16:37;98449.44;;;19.51;88.90
63554;BME280;49699;48.072;7.800;2022-09-14T04:19:03;98452.22;;;19.50;89.05
63554;BME280;49699;48.072;7.800;2022-09-14T04:21:28;98454.34;;;19.46;89.15
63554;BME280;49699;48.072;7.800;2022-09-14T04:23:55;98464.25;;;19.44;89.47
63554;BME280;49699;48.072;7.800;2022-09-14T04:26:23;98449.91;;;19.38;89.54
63554;BME280;49699;48.072;7.800;2022-09-14T04:28:49;98443.97;;;19.36;89.73
63554;BME280;49699;48.072;7.800;2022-09-14T04:31:14;98443.50;;;19.33;89.83
63554;BME280;49699;48.072;7.800;2022-09-14T04:33:42;98441.03;;;19.31;89.99
63554;BME280;49699;48.072;7.800;2022-09-14T04:36:13;98447.44;;;19.29;90.23
63554;BME280;49699;48.072;7.800;2022-09-14T04:38:40;98455.38;;;19.29;90.20
63554;BME280;49699;48.072;7.800;2022-09-14T04:41:16;98458.16;;;19.27;90.28
63554;BME280;49699;48.072;7.800;2022-09-14T04:43:43;98464.59;;;19.25;90.44
63554;BME280;49699;48.072;7.800;2022-09-14T04:46:12;98464.94;;;19.22;90.45
63554;BME280;49699;48.072;7.800;2022-09-14T04:48:37;98462.44;;;19.20;90.48
63554;BME280;49699;48.072;7.800;2022-09-14T04:51:05;98453.25;;;19.16;90.77
63554;BME280;49699;48.072;7.800;2022-09-14T04:53:33;98455.38;;;19.13;90.76
63554;BME280;49699;48.072;7.800;2022-09-14T04:56:00;98456.38;;;19.12;91.00
63554;BME280;49699;48.072;7.800;2022-09-14T04:58:27;98464.44;;;19.10;91.11
63554;BME280;49699;48.072;7.800;2022-09-14T05:00:54;98464.44;;;19.10;90.86
63554;BME280;49699;48.072;7.800;2022-09-14T05:03:20;98461.16;;;19.08;91.07
63554;BME280;49699;48.072;7.800;2022-09-14T05:05:46;98457.84;;;19.06;91.09
63554;BME280;49699;48.072;7.800;2022-09-14T05:08:12;98462.47;;;19.04;91.18
63554;BME280;49699;48.072;7.800;2022-09-14T05:10:37;98469.72;;;19.02;91.24
63554;BME280;49699;48.072;7.800;2022-09-14T05:13:02;98468.06;;;19.01;91.07
63554;BME280;49699;48.072;7.800;2022-09-14T05:15:28;98469.25;;;18.98;91.21
63554;BME280;49699;48.072;7.800;2022-09-14T05:17:53;98474.50;;;18.98;91.19
63554;BME280;49699;48.072;7.800;2022-09-14T05:20:19;98478.13;;;18.97;91.21
63554;BME280;49699;48.072;7.800;2022-09-14T05:22:48;98487.34;;;18.93;91.33
63554;BME280;49699;48.072;7.800;2022-09-14T05:25:13;98478.13;;;18.89;91.42
63554;BME280;49699;48.072;7.800;2022-09-14T05:27:39;98476.63;;;18.87;91.48
63554;BME280;49699;48.072;7.800;2022-09-14T05:30:05;98484.53;;;18.87;91.55
63554;BME280;49699;48.072;7.800;2022-09-14T05:32:30;98488.16;;;18.86;91.57
63554;BME280;49699;48.072;7.800;2022-09-14T05:34:55;98488.16;;;18.86;91.48
63554;BME280;49699;48.072;7.800;2022-09-14T05:37:21;98490.63;;;18.87;91.48
63554;BME280;49699;48.072;7.800;2022-09-14T05:39:46;98493.94;;;18.89;91.53
63554;BME280;49699;48.072;7.800;2022-09-14T05:42:12;98487.53;;;18.92;91.47
63554;BME280;49699;48.072;7.800;2022-09-14T05:44:37;98484.72;;;18.93;91.37
63554;BME280;49699;48.072;7.800;2022-09-14T05:47:02;98472.38;;;18.94;91.34
63554;BME280;49699;48.072;7.800;2022-09-14T05:49:28;98464.28;;;18.95;91.28
63554;BME280;49699;48.072;7.800;2022-09-14T05:51:53;98468.41;;;18.98;91.28
63554;BME280;49699;48.072;7.800;2022-09-14T05:54:18;98472.50;;;19.00;91.24
63554;BME280;49699;48.072;7.800;2022-09-14T05:56:44;98465.09;;;19.04;91.15
63554;BME280;49699;48.072;7.800;2022-09-14T05:59:09;98462.13;;;19.07;91.09
63554;BME280;49699;48.072;7.800;2022-09-14T06:01:35;98461.66;;;19.12;91.08
63554;BME280;49699;48.072;7.800;2022-09-14T06:04:01;98459.34;;;19.17;90.94
63554;BME280;49699;48.072;7.800;2022-09-14T06:06:27;98450.09;;;19.21;90.78
63554;BME280;49699;48.072;7.800;2022-09-14T06:08:54;98453.88;;;19.26;90.67
63554;BME280;49699;48.072;7.800;2022-09-14T06:11:23;98450.91;;;19.29;90.65
63554;BME280;49699;48.072;7.800;2022-09-14T06:13:49;98449.59;;;19.33;90.51
63554;BME280;49699;48.072;7.800;2022-09-14T06:16:18;98451.88;;;19.36;90.37
63554;BME280;49699;48.072;7.800;2022-09-14T06:18:45;98448.91;;;19.39;90.34
63554;BME280;49699;48.072;7.800;2022-09-14T06:21:12;98439.19;;;19.40;90.26
63554;BME280;49699;48.072;7.800;2022-09-14T06:23:42;98431.09;;;19.41;90.35
63554;BME280;49699;48.072;7.800;2022-09-14T06:26:07;98440.81;;;19.41;90.25
63554;BME280;49699;48.072;7.800;2022-09-14T06:28:33;98442.47;;;19.42;90.22
63554;BME280;49699;48.072;7.800;2022-09-14T06:31:00;98446.09;;;19.41;90.15
63554;BME280;49699;48.072;7.800;2022-09-14T06:33:27;98443.13;;;19.44;90.24
63554;BME280;49699;48.072;7.800;2022-09-14T06:35:58;98449.59;;;19.50;90.03
63554;BME280;49699;48.072;7.800;2022-09-14T06:38:24;98442.13;;;19.53;89.88
63554;BME280;49699;48.072;7.800;2022-09-14T06:40:57;98454.66;;;19.59;89.55
63554;BME280;49699;48.072;7.800;2022-09-14T06:43:24;98459.94;;;19.67;89.53
63554;BME280;49699;48.072;7.800;2022-09-14T06:46:19;98471.28;;;19.76;89.41
63554;BME280;49699;48.072;7.800;2022-09-14T06:48:48;98476.00;;;19.89;88.98
63554;BME280;49699;48.072;7.800;2022-09-14T06:51:23;98472.53;;;19.96;88.64
63554;BME280;49699;48.072;7.800;2022-09-14T06:53:50;98476.59;;;20.07;88.09
63554;BME280;49699;48.072;7.800;2022-09-14T06:56:16;98470.31;;;20.16;87.75
63554;BME280;49699;48.072;7.800;2022-09-14T06:58:42;98475.91;;;20.21;87.38
63554;BME280;49699;48.072;7.800;2022-09-14T07:01:12;98478.16;;;20.32;87.23
63554;BME280;49699;48.072;7.800;2022-09-14T07:03:39;98483.72;;;20.45;87.01
63554;BME280;49699;48.072;7.800;2022-09-14T07:06:08;98479.53;;;20.59;86.40
63554;BME280;49699;48.072;7.800;2022-09-14T07:08:36;98479.75;;;20.72;86.08
63554;BME280;49699;48.072;7.800;2022-09-14T07:11:02;98480.25;;;20.76;85.88
63554;BME280;49699;48.072;7.800;2022-09-14T07:13:28;98489.91;;;20.84;85.72
63554;BME280;49699;48.072;7.800;2022-09-14T07:15:54;98481.47;;;20.88;85.59
63554;BME280;49699;48.072;7.800;2022-09-14T07:18:21;98486.41;;;20.91;85.82
63554;BME280;49699;48.072;7.800;2022-09-14T07:20:50;98489.53;;;20.95;85.89
63554;BME280;49699;48.072;7.800;2022-09-14T07:23:15;98489.63;;;21.01;85.84
63554;BME280;49699;48.072;7.800;2022-09-14T07:25:40;98481.88;;;21.23;85.36
63554;BME280;49699;48.072;7.800;2022-09-14T07:28:06;98480.84;;;21.46;84.43
63554;BME280;49699;48.072;7.800;2022-09-14T07:30:36;98480.91;;;21.68;83.66
63554;BME280;49699;48.072;7.800;2022-09-14T07:33:03;98490.97;;;21.87;82.98
63554;BME280;49699;48.072;7.800;2022-09-14T07:35:29;98491.84;;;22.02;82.24
63554;BME280;49699;48.072;7.800;2022-09-14T07:37:55;98500.31;;;22.12;81.77
63554;BME280;49699;48.072;7.800;2022-09-14T07:40:20;98500.59;;;22.17;81.78
63554;BME280;49699;48.072;7.800;2022-09-14T07:42:54;98504.72;;;22.20;81.96
63554;BME280;49699;48.072;7.800;2022-09-14T07:45:20;98512.44;;;22.22;81.96
63554;BME280;49699;48.072;7.800;2022-09-14T07:47:46;98517.38;;;22.25;82.05
63554;BME280;49699;48.072;7.800;2022-09-14T07:50:13;98525.63;;;22.30;81.73
63554;BME280;49699;48.072;7.800;2022-09-14T07:52:39;98529.19;;;22.37;81.63
63554;BME280;49699;48.072;7.800;2022-09-14T07:55:05;98519.28;;;22.45;81.57
63554;BME280;49699;48.072;7.800;2022-09-14T07:57:31;98527.78;;;22.56;80.88
63554;BME280;49699;48.072;7.800;2022-09-14T07:59:56;98531.94;;;22.65;79.96
63554;BME280;49699;48.072;7.800;2022-09-14T08:02:23;98527.38;;;22.73;79.43
63554;BME280;49699;48.072;7.800;2022-09-14T08:04:49;98516.00;;;22.79;78.95
63554;BME280;49699;48.072;7.800;2022-09-14T08:07:16;98519.63;;;22.93;77.71
63554;BME280;49699;48.072;7.800;2022-09-14T08:09:41;98521.25;;;23.15;76.31
63554;BME280;49699;48.072;7.800;2022-09-14T08:12:07;98537.75;;;23.32;74.92
63554;BME280;49699;48.072;7.800;2022-09-14T08:14:32;98548.00;;;23.35;74.17
63554;BME280;49699;48.072;7.800;2022-09-14T08:16:57;98551.16;;;23.45;73.29
63554;BME280;49699;48.072;7.800;2022-09-14T08:19:24;98562.38;;;23.69;72.32
63554;BME280;49699;48.072;7.800;2022-09-14T08:21:50;98553.53;;;23.89;71.21
63554;BME280;49699;48.072;7.800;2022-09-14T08:24:19;98536.75;;;24.17;69.63
63554;BME280;49699;48.072;7.800;2022-09-14T08:26:45;98528.13;;;24.49;67.76
63554;BME280;49699;48.072;7.800;2022-09-14T08:29:12;98529.41;;;24.67;67.07
63554;BME280;49699;48.072;7.800;2022-09-14T08:31:38;98530.41;;;24.59;66.85
63554;BME280;49699;48.072;7.800;2022-09-14T08:34:05;98529.16;;;24.48;67.12
63554;BME280;49699;48.072;7.800;2022-09-14T08:36:36;98526.06;;;24.45;66.96
63554;BME280;49699;48.072;7.800;2022-09-14T08:39:04;98535.06;;;24.44;66.83
63554;BME280;49699;48.072;7.800;2022-09-14T08:46:39;98532.44;;;24.50;66.25
63554;BME280;49699;48.072;7.800;2022-09-14T08:51:49;98527.22;;;24.90;64.45
63554;BME280;49699;48.072;7.800;2022-09-14T08:54:15;98520.31;;;25.02;63.79
63554;BME280;49699;48.072;7.800;2022-09-14T08:56:43;98507.41;;;25.19;63.25
63554;BME280;49699;48.072;7.800;2022-09-14T09:04:57;98513.78;;;25.77;61.49
63554;BME280;49699;48.072;7.800;2022-09-14T09:09:53;98510.69;;;25.47;62.11
63554;BME280;49699;48.072;7.800;2022-09-14T09:12:22;98516.84;;;25.35;62.02
63554;BME280;49699;48.072;7.800;2022-09-14T09:17:37;98508.03;;;25.08;62.73
63554;BME280;49699;48.072;7.800;2022-09-14T09:20:14;98504.94;;;24.98;62.98
63554;BME280;49699;48.072;7.800;2022-09-14T09:22:44;98496.31;;;24.89;63.19
63554;BME280;49699;48.072;7.800;2022-09-14T09:28:09;98487.06;;;24.78;63.34
63554;BME280;49699;48.072;7.800;2022-09-14T09:30:36;98480.28;;;24.76;63.17
63554;BME280;49699;48.072;7.800;2022-09-14T09:33:02;98482.97;;;24.76;63.24
63554;BME280;49699;48.072;7.800;2022-09-14T09:35:44;98489.09;;;24.76;63.39
63554;BME280;49699;48.072;7.800;2022-09-14T09:38:18;98471.88;;;24.72;63.36
63554;BME280;49699;48.072;7.800;2022-09-14T09:41:20;98467.81;;;24.70;63.07
63554;BME280;49699;48.072;7.800;2022-09-14T09:44:03;98465.56;;;24.67;63.09
63554;BME280;49699;48.072;7.800;2022-09-14T09:46:33;98470.88;;;24.67;63.19
63554;BME280;49699;48.072;7.800;2022-09-14T09:49:03;98459.41;;;24.73;63.00
63554;BME280;49699;48.072;7.800;2022-09-14T09:51:30;98460.88;;;24.82;62.64
63554;BME280;49699;48.072;7.800;2022-09-14T09:56:36;98455.56;;;24.88;62.20
63554;BME280;49699;48.072;7.800;2022-09-14T09:59:02;98451.09;;;25.02;61.74
63554;BME280;49699;48.072;7.800;2022-09-14T10:01:28;98442.06;;;25.16;61.39
63554;BME280;49699;48.072;7.800;2022-09-14T10:04:21;98439.41;;;25.30;61.07
63554;BME280;49699;48.072;7.800;2022-09-14T10:06:48;98455.59;;;25.35;60.69
63554;BME280;49699;48.072;7.800;2022-09-14T10:09:20;98456.59;;;25.34;60.54
63554;BME280;49699;48.072;7.800;2022-09-14T10:11:55;98459.50;;;25.25;60.68
63554;BME280;49699;48.072;7.800;2022-09-14T10:14:25;98450.47;;;25.13;61.08
63554;BME280;49699;48.072;7.800;2022-09-14T10:16:52;98451.50;;;24.99;61.30
63554;BME280;49699;48.072;7.800;2022-09-14T10:19:23;98453.09;;;24.80;61.71
63554;BME280;49699;48.072;7.800;2022-09-14T10:24:51;98463.03;;;24.45;62.95
63554;BME280;49699;48.072;7.800;2022-09-14T10:28:15;98472.41;;;24.28;63.37
63554;BME280;49699;48.072;7.800;2022-09-14T10:30:30;98492.97;;;24.13;64.00
63554;BME280;49699;48.072;7.800;2022-09-14T10:33:04;98505.13;;;23.94;64.82
63554;BME280;49699;48.072;7.800;2022-09-14T10:36:00;98500.47;;;23.68;66.29
63554;BME280;49699;48.072;7.800;2022-09-14T10:38:38;98500.81;;;23.37;67.85
63554;BME280;49699;48.072;7.800;2022-09-14T10:41:12;98494.03;;;23.07;69.72
63554;BME280;49699;48.072;7.800;2022-09-14T10:46:20;98506.56;;;22.41;72.86
63554;BME280;49699;48.072;7.800;2022-09-14T10:51:41;98510.63;;;21.93;75.42
63554;BME280;49699;48.072;7.800;2022-09-14T10:57:16;98502.66;;;21.48;77.76
63554;BME280;49699;48.072;7.800;2022-09-14T11:00:39;98509.09;;;21.31;78.78
63554;BME280;49699;48.072;7.800;2022-09-14T11:05:24;98517.06;;;21.00;80.12
63554;BME280;49699;48.072;7.800;2022-09-14T11:13:22;98521.19;;;20.49;81.29
63554;BME280;49699;48.072;7.800;2022-09-14T11:21:51;98523.53;;;19.97;83.24
63554;BME280;49699;48.072;7.800;2022-09-14T11:24:39;98509.56;;;19.88;83.71
63554;BME280;49699;48.072;7.800;2022-09-14T11:27:25;98500.16;;;19.86;84.19
63554;BME280;49699;48.072;7.800;2022-09-14T11:29:56;98527.00;;;19.89;84.25
63554;BME280;49699;48.072;7.800;2022-09-14T11:32:30;98518.25;;;19.89;84.50
63554;BME280;49699;48.072;7.800;2022-09-14T11:35:10;98529.47;;;19.91;84.63
63554;BME280;49699;48.072;7.800;2022-09-14T11:37:40;98532.63;;;19.94;84.59
63554;BME280;49699;48.072;7.800;2022-09-14T11:46:16;98548.94;;;20.06;84.38
63554;BME280;49699;48.072;7.800;2022-09-14T11:48:50;98558.31;;;20.08;84.61
63554;BME280;49699;48.072;7.800;2022-09-14T11:51:31;98566.56;;;20.14;84.35
63554;BME280;49699;48.072;7.800;2022-09-14T11:54:00;98565.25;;;20.18;84.36
63554;BME280;49699;48.072;7.800;2022-09-14T11:56:30;98569.19;;;20.22;84.42
63554;BME280;49699;48.072;7.800;2022-09-14T11:59:02;98571.31;;;20.26;84.43
63554;BME280;49699;48.072;7.800;2022-09-14T12:01:38;98568.00;;;20.32;84.51
63554;BME280;49699;48.072;7.800;2022-09-14T12:11:48;98587.28;;;20.49;84.64
63554;BME280;49699;48.072;7.800;2022-09-14T12:17:23;98595.34;;;20.56;85.11
63554;BME280;49699;48.072;7.800;2022-09-14T12:19:55;98591.38;;;20.60;85.09
63554;BME280;49699;48.072;7.800;2022-09-14T12:22:34;98595.03;;;20.59;85.06
63554;BME280;49699;48.072;7.800;2022-09-14T12:27:37;98597.84;;;20.57;85.31
63554;BME280;49699;48.072;7.800;2022-09-14T12:53:44;98562.41;;;20.66;85.07
63554;BME280;49699;48.072;7.800;2022-09-14T12:56:18;98552.34;;;20.62;85.21
63554;BME280;49699;48.072;7.800;2022-09-14T12:59:09;98551.41;;;20.55;85.42
63554;BME280;49699;48.072;7.800;2022-09-14T13:01:53;98548.78;;;20.47;85.55
63554;BME280;49699;48.072;7.800;2022-09-14T13:04:32;98547.19;;;20.37;85.81
63554;BME280;49699;48.072;7.800;2022-09-14T13:07:00;98569.97;;;20.30;86.22
63554;BME280;49699;48.072;7.800;2022-09-14T13:09:28;98557.47;;;20.24;86.39
63554;BME280;49699;48.072;7.800;2022-09-14T13:12:01;98549.22;;;20.19;86.30
63554;BME280;49699;48.072;7.800;2022-09-14T13:14:30;98565.25;;;20.18;86.54
63554;BME280;49699;48.072;7.800;2022-09-14T13:16:59;98554.19;;;20.14;86.62
63554;BME280;49699;48.072;7.800;2022-09-14T13:19:30;98551.72;;;20.13;87.09
63554;BME280;49699;48.072;7.800;2022-09-14T13:21:57;98574.00;;;20.10;86.94
63554;BME280;49699;48.072;7.800;2022-09-14T13:24:41;98594.00;;;20.04;86.57
63554;BME280;49699;48.072;7.800;2022-09-14T13:27:17;98573.38;;;20.00;86.56
63554;BME280;49699;48.072;7.800;2022-09-14T13:29:46;98568.59;;;19.95;86.23
63554;BME280;49699;48.072;7.800;2022-09-14T13:32:17;98575.69;;;19.95;85.81
63554;BME280;49699;48.072;7.800;2022-09-14T13:34:44;98565.78;;;19.97;85.31
63554;BME280;49699;48.072;7.800;2022-09-14T13:37:13;98578.50;;;20.01;85.09
63554;BME280;49699;48.072;7.800;2022-09-14T13:39:39;98582.47;;;20.05;84.81
63554;BME280;49699;48.072;7.800;2022-09-14T13:42:07;98583.75;;;20.09;84.54
63554;BME280;49699;48.072;7.800;2022-09-14T13:44:35;98575.47;;;20.13;84.13
63554;BME280;49699;48.072;7.800;2022-09-14T13:47:06;98582.09;;;20.17;84.29
63554;BME280;49699;48.072;7.800;2022-09-14T13:49:34;98575.47;;;20.21;84.33
63554;BME280;49699;48.072;7.800;2022-09-14T13:57:33;98574.09;;;20.33;83.80
63554;BME280;49699;48.072;7.800;2022-09-14T14:00:04;98567.00;;;20.33;83.89
63554;BME280;49699;48.072;7.800;2022-09-14T14:02:35;98555.59;;;20.33;83.60
63554;BME280;49699;48.072;7.800;2022-09-14T14:05:02;98562.72;;;20.40;83.13
63554;BME280;49699;48.072;7.800;2022-09-14T14:07:33;98555.91;;;20.46;82.97
63554;BME280;49699;48.072;7.800;2022-09-14T14:10:00;98565.97;;;20.51;82.68
63554;BME280;49699;48.072;7.800;2022-09-14T14:12:36;98557.69;;;20.54;82.68
63554;BME280;49699;48.072;7.800;2022-09-14T14:15:04;98553.72;;;20.58;82.61
63554;BME280;49699;48.072;7.800;2022-09-14T14:20:26;98542.41;;;20.72;81.89
63554;BME280;49699;48.072;7.800;2022-09-14T14:23:23;98543.47;;;20.86;81.41
63554;BME280;49699;48.072;7.800;2022-09-14T14:25:51;98547.72;;;20.95;80.99
63554;BME280;49699;48.072;7.800;2022-09-14T14:30:48;98520.72;;;20.99;81.01
63554;BME280;49699;48.072;7.800;2022-09-14T14:33:15;98513.91;;;21.05;81.02
63554;BME280;49699;48.072;7.800;2022-09-14T14:35:45;98508.72;;;21.11;81.00
63554;BME280;49699;48.072;7.800;2022-09-14T14:38:11;98501.72;;;21.19;81.15
63554;BME280;49699;48.072;7.800;2022-09-14T14:40:37;98501.88;;;21.25;81.08
63554;BME280;49699;48.072;7.800;2022-09-14T14:43:04;98489.53;;;21.32;81.16
63554;BME280;49699;48.072;7.800;2022-09-14T14:45:31;98489.00;;;21.37;80.94
63554;BME280;49699;48.072;7.800;2022-09-14T14:47:57;98481.38;;;21.42;80.88
63554;BME280;49699;48.072;7.800;2022-09-14T14:50:29;98461.13;;;21.49;80.63
63554;BME280;49699;48.072;7.800;2022-09-14T14:52:55;98465.22;;;21.52;80.57
63554;BME280;49699;48.072;7.800;2022-09-14T14:55:25;98453.06;;;21.57;80.38
63554;BME280;49699;48.072;7.800;2022-09-14T14:57:57;98447.72;;;21.65;80.22
63554;BME280;49699;48.072;7.800;2022-09-14T15:00:24;98448.59;;;21.72;80.05
63554;BME280;49699;48.072;7.800;2022-09-14T15:02:50;98430.16;;;21.79;80.02
63554;BME280;49699;48.072;7.800;2022-09-14T15:05:16;98432.88;;;21.86;79.87
63554;BME280;49699;48.072;7.800;2022-09-14T15:07:42;98426.78;;;22.00;79.39
63554;BME280;49699;48.072;7.800;2022-09-14T15:10:12;98421.47;;;22.14;79.24
63554;BME280;49699;48.072;7.800;2022-09-14T15:12:38;98423.97;;;22.23;78.97
63554;BME280;49699;48.072;7.800;2022-09-14T15:15:04;98414.47;;;22.28;78.20
63554;BME280;49699;48.072;7.800;2022-09-14T15:17:29;98409.88;;;22.37;77.22
63554;BME280;49699;48.072;7.800;2022-09-14T15:19:55;98398.13;;;22.46;75.98
63554;BME280;49699;48.072;7.800;2022-09-14T15:22:21;98400.41;;;22.49;75.04
63554;BME280;49699;48.072;7.800;2022-09-14T15:24:46;98399.41;;;22.50;74.66
63554;BME280;49699;48.072;7.800;2022-09-14T15:27:12;98388.16;;;22.48;74.43
63554;BME280;49699;48.072;7.800;2022-09-14T15:29:37;98391.00;;;22.46;74.31